sensor_id;sensor_type;location;lat;lon;timestamp;P1;durP1;ratioP1;P2;durP2;ratioP2
17648;SDS011;8943;51.110;-4.158;2023-04-06T02:39:01;31.10;;;4.67;;
17648;SDS011;8943;51.110;-4.158;2023-04-06T02:41:44;21.40;;;3.40;;
17648;SDS011;8943;51.110;-4.158;2023-04-06T02:50:46;25.80;;;4.73;;
17648;SDS011;8943;51.110;-4.158;2023-04-06T02:53:43;38.73;;;6.30;;
17648;SDS011;8943;51.110;-4.158;2023-04-06T05:34:15;28.10;;;4.43;;
17648;SDS011;8943;51.110;-4.158;2023-04-06T05:39:48;21.63;;;3.97;;
17648;SDS011;8943;51.110;-4.158;2023-04-06T05:42:22;26.50;;;4.50;;
17648;SDS011;8943;51.110;-4.158;2023-04-06T05:45:14;35.37;;;4.70;;
17648;SDS011;8943;51.110;-4.158;2023-04-06T07:02:03;11.47;;;2.20;;
17648;SDS011;8943;51.110;-4.158;2023-04-06T07:04:33;7.23;;;1.70;;
17648;SDS011;8943;51.110;-4.158;2023-04-06T07:07:01;12.77;;;2.17;;
17648;SDS011;8943;51.110;-4.158;2023-04-06T07:09:30;5.60;;;1.50;;
17648;SDS011;8943;51.110;-4.158;2023-04-06T07:11:58;10.50;;;1.80;;
17648;SDS011;8943;51.110;-4.158;2023-04-06T07:14:32;12.13;;;2.07;;
17648;SDS011;8943;51.110;-4.158;2023-04-06T07:17:04;10.73;;;2.27;;
17648;SDS011;8943;51.110;-4.158;2023-04-06T07:19:33;16.30;;;2.70;;
17648;SDS011;8943;51.110;-4.158;2023-04-06T07:22:03;16.17;;;2.87;;
17648;SDS011;8943;51.110;-4.158;2023-04-06T07:24:31;13.57;;;2.77;;
17648;SDS011;8943;51.110;-4.158;2023-04-06T07:26:59;8.93;;;2.07;;
17648;SDS011;8943;51.110;-4.158;2023-04-06T07:29:41;6.57;;;1.43;;
17648;SDS011;8943;51.110;-4.158;2023-04-06T07:32:11;6.63;;;2.23;;
17648;SDS011;8943;51.110;-4.158;2023-04-06T07:34:40;5.03;;;1.20;;
17648;SDS011;8943;51.110;-4.158;2023-04-06T07:37:28;8.13;;;2.33;;
17648;SDS011;8943;51.110;-4.158;2023-04-06T07:39:56;14.50;;;2.57;;
17648;SDS011;8943;51.110;-4.158;2023-04-06T07:42:24;10.70;;;2.80;;
17648;SDS011;8943;51.110;-4.158;2023-04-06T07:44:52;17.50;;;2.63;;
17648;SDS011;8943;51.110;-4.158;2023-04-06T07:47:22;13.80;;;2.47;;
17648;SDS011;8943;51.110;-4.158;2023-04-06T07:49:50;10.73;;;2.50;;
17648;SDS011;8943;51.110;-4.158;2023-04-06T07:52:19;8.97;;;2.20;;
17648;SDS011;8943;51.110;-4.158;2023-04-06T07:54:50;4.90;;;1.70;;
17648;SDS011;8943;51.110;-4.158;2023-04-06T07:57:18;6.70;;;1.80;;
17648;SDS011;8943;51.110;-4.158;2023-04-06T07:59:48;9.33;;;2.13;;
17648;SDS011;8943;51.110;-4.158;2023-04-06T08:02:16;7.50;;;1.03;;
17648;SDS011;8943;51.110;-4.158;2023-04-06T08:04:52;14.70;;;2.57;;
17648;SDS011;8943;51.110;-4.158;2023-04-06T08:07:23;7.60;;;2.13;;
17648;SDS011;8943;51.110;-4.158;2023-04-06T08:09:53;11.73;;;1.77;;
17648;SDS011;8943;51.110;-4.158;2023-04-06T08:12:22;6.27;;;1.27;;
17648;SDS011;8943;51.110;-4.158;2023-04-06T08:14:50;7.40;;;1.60;;
17648;SDS011;8943;51.110;-4.158;2023-04-06T08:17:19;8.43;;;1.97;;
17648;SDS011;8943;51.110;-4.158;2023-04-06T08:19:47;8.63;;;1.63;;
17648;SDS011;8943;51.110;-4.158;2023-04-06T08:22:17;13.23;;;2.10;;
17648;SDS011;8943;51.110;-4.158;2023-04-06T08:24:50;11.73;;;2.43;;
17648;SDS011;8943;51.110;-4.158;2023-04-06T08:27:21;7.10;;;2.17;;
17648;SDS011;8943;51.110;-4.158;2023-04-06T08:29:55;16.37;;;2.07;;
17648;SDS011;8943;51.110;-4.158;2023-04-06T08:32:26;10.33;;;2.63;;
17648;SDS011;8943;51.110;-4.158;2023-04-06T08:34:55;12.60;;;2.47;;
17648;SDS011;8943;51.110;-4.158;2023-04-06T08:37:25;11.67;;;2.27;;
17648;SDS011;8943;51.110;-4.158;2023-04-06T08:39:53;12.27;;;2.90;;
17648;SDS011;8943;51.110;-4.158;2023-04-06T08:42:21;10.63;;;1.90;;
17648;SDS011;8943;51.110;-4.158;2023-04-06T08:44:52;11.57;;;2.23;;
17648;SDS011;8943;51.110;-4.158;2023-04-06T08:47:22;14.40;;;2.37;;
17648;SDS011;8943;51.110;-4.158;2023-04-06T08:49:50;15.73;;;2.30;;
17648;SDS011;8943;51.110;-4.158;2023-04-06T08:52:20;11.27;;;2.60;;
17648;SDS011;8943;51.110;-4.158;2023-04-06T08:54:49;14.70;;;2.10;;
17648;SDS011;8943;51.110;-4.158;2023-04-06T08:57:17;5.37;;;1.20;;
17648;SDS011;8943;51.110;-4.158;2023-04-06T08:59:48;5.73;;;1.23;;
17648;SDS011;8943;51.110;-4.158;2023-04-06T09:02:18;7.43;;;1.67;;
17648;SDS011;8943;51.110;-4.158;2023-04-06T09:04:47;8.10;;;1.97;;
17648;SDS011;8943;51.110;-4.158;2023-04-06T09:07:18;6.93;;;2.03;;
17648;SDS011;8943;51.110;-4.158;2023-04-06T09:09:47;6.40;;;1.57;;
17648;SDS011;8943;51.110;-4.158;2023-04-06T09:12:23;8.73;;;1.93;;
17648;SDS011;8943;51.110;-4.158;2023-04-06T09:14:53;14.73;;;1.97;;
17648;SDS011;8943;51.110;-4.158;2023-04-06T09:17:22;11.07;;;1.77;;
17648;SDS011;8943;51.110;-4.158;2023-04-06T09:19:52;6.53;;;1.87;;
17648;SDS011;8943;51.110;-4.158;2023-04-06T09:22:20;8.90;;;2.37;;
17648;SDS011;8943;51.110;-4.158;2023-04-06T09:24:49;11.43;;;1.77;;
17648;SDS011;8943;51.110;-4.158;2023-04-06T09:27:30;8.10;;;1.63;;
17648;SDS011;8943;51.110;-4.158;2023-04-06T09:30:02;6.87;;;1.20;;
17648;SDS011;8943;51.110;-4.158;2023-04-06T09:32:43;10.53;;;1.53;;
17648;SDS011;8943;51.110;-4.158;2023-04-06T09:35:13;5.23;;;1.33;;
17648;SDS011;8943;51.110;-4.158;2023-04-06T09:37:43;10.33;;;1.43;;
17648;SDS011;8943;51.110;-4.158;2023-04-06T09:40:12;8.77;;;1.90;;
17648;SDS011;8943;51.110;-4.158;2023-04-06T09:42:44;9.80;;;1.77;;
17648;SDS011;8943;51.110;-4.158;2023-04-06T09:45:14;9.40;;;1.80;;
17648;SDS011;8943;51.110;-4.158;2023-04-06T09:47:44;16.03;;;1.77;;
17648;SDS011;8943;51.110;-4.158;2023-04-06T09:50:13;12.53;;;1.83;;
17648;SDS011;8943;51.110;-4.158;2023-04-06T09:52:46;5.57;;;1.33;;
17648;SDS011;8943;51.110;-4.158;2023-04-06T09:55:25;17.97;;;2.00;;
17648;SDS011;8943;51.110;-4.158;2023-04-06T09:58:07;9.03;;;1.00;;
17648;SDS011;8943;51.110;-4.158;2023-04-06T10:00:51;7.80;;;1.73;;
17648;SDS011;8943;51.110;-4.158;2023-04-06T10:03:28;2.33;;;0.83;;
17648;SDS011;8943;51.110;-4.158;2023-04-06T10:06:10;3.20;;;1.10;;
17648;SDS011;8943;51.110;-4.158;2023-04-06T10:08:46;9.47;;;1.70;;
17648;SDS011;8943;51.110;-4.158;2023-04-06T10:11:26;6.67;;;1.30;;
17648;SDS011;8943;51.110;-4.158;2023-04-06T10:14:00;12.63;;;1.80;;
17648;SDS011;8943;51.110;-4.158;2023-04-06T10:16:30;6.83;;;1.37;;
17648;SDS011;8943;51.110;-4.158;2023-04-06T10:19:02;11.00;;;1.33;;
17648;SDS011;8943;51.110;-4.158;2023-04-06T10:21:38;7.93;;;1.43;;
17648;SDS011;8943;51.110;-4.158;2023-04-06T10:24:09;6.77;;;1.47;;
17648;SDS011;8943;51.110;-4.158;2023-04-06T10:26:38;3.13;;;1.00;;
17648;SDS011;8943;51.110;-4.158;2023-04-06T10:29:09;7.60;;;2.10;;
17648;SDS011;8943;51.110;-4.158;2023-04-06T10:31:39;12.00;;;2.00;;
17648;SDS011;8943;51.110;-4.158;2023-04-06T10:34:10;9.00;;;1.63;;
17648;SDS011;8943;51.110;-4.158;2023-04-06T10:36:39;9.73;;;2.00;;
17648;SDS011;8943;51.110;-4.158;2023-04-06T10:39:10;9.03;;;1.50;;
17648;SDS011;8943;51.110;-4.158;2023-04-06T10:41:41;4.20;;;1.10;;
17648;SDS011;8943;51.110;-4.158;2023-04-06T10:44:18;8.27;;;1.93;;
17648;SDS011;8943;51.110;-4.158;2023-04-06T10:46:53;10.07;;;1.30;;
17648;SDS011;8943;51.110;-4.158;2023-04-06T10:49:24;8.53;;;1.50;;
17648;SDS011;8943;51.110;-4.158;2023-04-06T10:51:58;6.23;;;1.17;;
17648;SDS011;8943;51.110;-4.158;2023-04-06T10:54:27;4.77;;;1.27;;
17648;SDS011;8943;51.110;-4.158;2023-04-06T10:56:55;7.47;;;1.40;;
17648;SDS011;8943;51.110;-4.158;2023-04-06T10:59:29;2.30;;;1.30;;
17648;SDS011;8943;51.110;-4.158;2023-04-06T11:02:19;2.63;;;0.90;;
17648;SDS011;8943;51.110;-4.158;2023-04-06T11:04:55;3.67;;;0.80;;
17648;SDS011;8943;51.110;-4.158;2023-04-06T11:07:38;4.53;;;1.27;;
17648;SDS011;8943;51.110;-4.158;2023-04-06T11:10:38;11.73;;;1.50;;
17648;SDS011;8943;51.110;-4.158;2023-04-06T11:13:25;5.90;;;1.47;;
17648;SDS011;8943;51.110;-4.158;2023-04-06T11:16:11;5.30;;;1.20;;
17648;SDS011;8943;51.110;-4.158;2023-04-06T11:18:55;6.57;;;1.30;;
17648;SDS011;8943;51.110;-4.158;2023-04-06T11:21:31;4.17;;;0.93;;
17648;SDS011;8943;51.110;-4.158;2023-04-06T11:24:07;7.13;;;1.80;;
17648;SDS011;8943;51.110;-4.158;2023-04-06T11:26:40;5.93;;;1.70;;
17648;SDS011;8943;51.110;-4.158;2023-04-06T11:29:32;7.87;;;1.43;;
17648;SDS011;8943;51.110;-4.158;2023-04-06T11:32:19;4.13;;;1.10;;
17648;SDS011;8943;51.110;-4.158;2023-04-06T11:34:57;5.13;;;1.10;;
17648;SDS011;8943;51.110;-4.158;2023-04-06T11:37:59;7.83;;;1.50;;
17648;SDS011;8943;51.110;-4.158;2023-04-06T11:40:31;3.27;;;0.67;;
17648;SDS011;8943;51.110;-4.158;2023-04-06T11:43:14;8.63;;;1.30;;
17648;SDS011;8943;51.110;-4.158;2023-04-06T11:45:59;8.67;;;1.77;;
17648;SDS011;8943;51.110;-4.158;2023-04-06T11:48:31;3.90;;;1.13;;
17648;SDS011;8943;51.110;-4.158;2023-04-06T11:51:01;4.20;;;1.30;;
17648;SDS011;8943;51.110;-4.158;2023-04-06T11:53:31;5.60;;;0.80;;
17648;SDS011;8943;51.110;-4.158;2023-04-06T11:56:01;6.63;;;1.20;;
17648;SDS011;8943;51.110;-4.158;2023-04-06T11:58:30;2.17;;;1.00;;
17648;SDS011;8943;51.110;-4.158;2023-04-06T12:01:04;3.90;;;1.00;;
17648;SDS011;8943;51.110;-4.158;2023-04-06T12:03:45;5.63;;;0.67;;
17648;SDS011;8943;51.110;-4.158;2023-04-06T12:06:15;2.80;;;0.93;;
17648;SDS011;8943;51.110;-4.158;2023-04-06T12:08:46;3.93;;;1.00;;
17648;SDS011;8943;51.110;-4.158;2023-04-06T12:11:16;3.53;;;0.80;;
17648;SDS011;8943;51.110;-4.158;2023-04-06T12:13:46;8.13;;;1.77;;
17648;SDS011;8943;51.110;-4.158;2023-04-06T12:16:14;7.77;;;1.47;;
17648;SDS011;8943;51.110;-4.158;2023-04-06T12:18:58;6.10;;;1.30;;
17648;SDS011;8943;51.110;-4.158;2023-04-06T12:21:26;5.13;;;1.10;;
17648;SDS011;8943;51.110;-4.158;2023-04-06T12:23:56;5.57;;;1.17;;
17648;SDS011;8943;51.110;-4.158;2023-04-06T12:26:27;6.97;;;1.83;;
17648;SDS011;8943;51.110;-4.158;2023-04-06T12:28:55;5.27;;;1.00;;
17648;SDS011;8943;51.110;-4.158;2023-04-06T12:31:23;3.90;;;0.83;;
17648;SDS011;8943;51.110;-4.158;2023-04-06T12:33:52;7.00;;;1.10;;
17648;SDS011;8943;51.110;-4.158;2023-04-06T12:39:06;5.20;;;1.30;;
17648;SDS011;8943;51.110;-4.158;2023-04-06T12:41:42;5.07;;;1.43;;
17648;SDS011;8943;51.110;-4.158;2023-04-06T12:44:19;6.07;;;1.20;;
17648;SDS011;8943;51.110;-4.158;2023-04-06T12:46:53;2.60;;;1.00;;
17648;SDS011;8943;51.110;-4.158;2023-04-06T12:49:23;10.33;;;1.63;;
17648;SDS011;8943;51.110;-4.158;2023-04-06T12:51:54;6.53;;;1.27;;
17648;SDS011;8943;51.110;-4.158;2023-04-06T12:54:22;6.37;;;1.53;;
17648;SDS011;8943;51.110;-4.158;2023-04-06T12:56:53;5.17;;;1.20;;
17648;SDS011;8943;51.110;-4.158;2023-04-06T12:59:22;6.07;;;1.40;;
17648;SDS011;8943;51.110;-4.158;2023-04-06T13:01:51;8.87;;;1.47;;
17648;SDS011;8943;51.110;-4.158;2023-04-06T13:04:20;6.37;;;1.47;;
17648;SDS011;8943;51.110;-4.158;2023-04-06T13:06:48;5.30;;;1.33;;
17648;SDS011;8943;51.110;-4.158;2023-04-06T13:09:18;1.60;;;0.67;;
17648;SDS011;8943;51.110;-4.158;2023-04-06T13:11:46;5.77;;;0.90;;
17648;SDS011;8943;51.110;-4.158;2023-04-06T13:14:14;6.63;;;1.20;;
17648;SDS011;8943;51.110;-4.158;2023-04-06T13:16:42;3.40;;;0.63;;
17648;SDS011;8943;51.110;-4.158;2023-04-06T13:19:11;6.83;;;1.23;;
17648;SDS011;8943;51.110;-4.158;2023-04-06T13:21:40;8.87;;;1.30;;
17648;SDS011;8943;51.110;-4.158;2023-04-06T13:24:08;3.00;;;0.77;;
17648;SDS011;8943;51.110;-4.158;2023-04-06T13:26:37;6.23;;;1.40;;
17648;SDS011;8943;51.110;-4.158;2023-04-06T13:29:06;2.93;;;0.73;;
17648;SDS011;8943;51.110;-4.158;2023-04-06T13:31:34;2.00;;;0.60;;
17648;SDS011;8943;51.110;-4.158;2023-04-06T13:34:03;3.73;;;0.70;;
17648;SDS011;8943;51.110;-4.158;2023-04-06T13:36:31;3.70;;;0.80;;
17648;SDS011;8943;51.110;-4.158;2023-04-06T13:39:00;4.07;;;1.10;;
17648;SDS011;8943;51.110;-4.158;2023-04-06T13:41:28;3.23;;;1.17;;
17648;SDS011;8943;51.110;-4.158;2023-04-06T13:44:01;4.40;;;1.10;;
17648;SDS011;8943;51.110;-4.158;2023-04-06T13:46:30;6.50;;;1.07;;
17648;SDS011;8943;51.110;-4.158;2023-04-06T13:49:00;6.17;;;1.03;;
17648;SDS011;8943;51.110;-4.158;2023-04-06T13:51:30;4.60;;;1.00;;
17648;SDS011;8943;51.110;-4.158;2023-04-06T13:53:59;2.73;;;0.77;;
17648;SDS011;8943;51.110;-4.158;2023-04-06T13:56:30;4.53;;;0.80;;
17648;SDS011;8943;51.110;-4.158;2023-04-06T13:59:00;0.93;;;0.50;;
17648;SDS011;8943;51.110;-4.158;2023-04-06T14:01:28;5.90;;;1.10;;
17648;SDS011;8943;51.110;-4.158;2023-04-06T14:03:57;5.53;;;1.17;;
17648;SDS011;8943;51.110;-4.158;2023-04-06T14:06:26;3.57;;;0.77;;
17648;SDS011;8943;51.110;-4.158;2023-04-06T14:09:00;5.40;;;1.30;;
17648;SDS011;8943;51.110;-4.158;2023-04-06T14:11:41;4.47;;;0.70;;
17648;SDS011;8943;51.110;-4.158;2023-04-06T14:14:33;6.23;;;0.87;;
17648;SDS011;8943;51.110;-4.158;2023-04-06T14:17:08;3.70;;;0.90;;
17648;SDS011;8943;51.110;-4.158;2023-04-06T14:19:56;4.17;;;0.70;;
17648;SDS011;8943;51.110;-4.158;2023-04-06T14:22:37;2.57;;;0.67;;
17648;SDS011;8943;51.110;-4.158;2023-04-06T14:25:18;4.73;;;0.93;;
17648;SDS011;8943;51.110;-4.158;2023-04-06T14:27:46;7.03;;;1.20;;
17648;SDS011;8943;51.110;-4.158;2023-04-06T14:30:48;1.90;;;0.67;;
17648;SDS011;8943;51.110;-4.158;2023-04-06T14:33:21;2.40;;;0.60;;
17648;SDS011;8943;51.110;-4.158;2023-04-06T14:35:50;2.93;;;0.57;;
17648;SDS011;8943;51.110;-4.158;2023-04-06T14:38:38;2.03;;;0.80;;
17648;SDS011;8943;51.110;-4.158;2023-04-06T14:41:14;1.83;;;0.63;;
17648;SDS011;8943;51.110;-4.158;2023-04-06T14:43:45;1.83;;;0.50;;
17648;SDS011;8943;51.110;-4.158;2023-04-06T14:46:16;2.43;;;0.70;;
17648;SDS011;8943;51.110;-4.158;2023-04-06T14:48:46;2.23;;;0.30;;
17648;SDS011;8943;51.110;-4.158;2023-04-06T14:51:24;1.30;;;0.60;;
17648;SDS011;8943;51.110;-4.158;2023-04-06T14:53:53;1.70;;;0.57;;
17648;SDS011;8943;51.110;-4.158;2023-04-06T14:56:22;5.33;;;0.63;;
17648;SDS011;8943;51.110;-4.158;2023-04-06T14:58:56;1.63;;;0.50;;
17648;SDS011;8943;51.110;-4.158;2023-04-06T15:01:27;1.43;;;0.33;;
17648;SDS011;8943;51.110;-4.158;2023-04-06T15:03:57;3.07;;;0.70;;
17648;SDS011;8943;51.110;-4.158;2023-04-06T15:06:26;4.40;;;0.70;;
17648;SDS011;8943;51.110;-4.158;2023-04-06T15:08:55;3.53;;;0.60;;
17648;SDS011;8943;51.110;-4.158;2023-04-06T15:11:24;4.63;;;0.93;;
17648;SDS011;8943;51.110;-4.158;2023-04-06T15:13:56;1.67;;;0.87;;
17648;SDS011;8943;51.110;-4.158;2023-04-06T15:16:45;2.57;;;0.80;;
17648;SDS011;8943;51.110;-4.158;2023-04-06T15:19:18;8.10;;;1.57;;
17648;SDS011;8943;51.110;-4.158;2023-04-06T15:22:10;4.10;;;1.53;;
17648;SDS011;8943;51.110;-4.158;2023-04-06T15:24:38;2.77;;;0.77;;
17648;SDS011;8943;51.110;-4.158;2023-04-06T15:27:07;2.03;;;0.93;;
17648;SDS011;8943;51.110;-4.158;2023-04-06T15:29:38;3.37;;;1.20;;
17648;SDS011;8943;51.110;-4.158;2023-04-06T15:32:07;2.08;;;0.70;;
17648;SDS011;8943;51.110;-4.158;2023-04-06T15:34:35;3.97;;;1.00;;
17648;SDS011;8943;51.110;-4.158;2023-04-06T15:37:04;2.53;;;1.05;;
17648;SDS011;8943;51.110;-4.158;2023-04-06T15:39:32;3.63;;;0.63;;
17648;SDS011;8943;51.110;-4.158;2023-04-06T15:42:00;2.73;;;0.60;;
17648;SDS011;8943;51.110;-4.158;2023-04-06T15:44:28;2.53;;;0.90;;
17648;SDS011;8943;51.110;-4.158;2023-04-06T15:46:57;1.93;;;0.63;;
17648;SDS011;8943;51.110;-4.158;2023-04-06T15:49:29;3.40;;;0.70;;
17648;SDS011;8943;51.110;-4.158;2023-04-06T15:52:01;2.78;;;0.73;;
17648;SDS011;8943;51.110;-4.158;2023-04-06T15:54:30;4.28;;;1.00;;
17648;SDS011;8943;51.110;-4.158;2023-04-06T15:57:06;3.13;;;0.82;;
17648;SDS011;8943;51.110;-4.158;2023-04-06T15:59:34;4.20;;;0.75;;
17648;SDS011;8943;51.110;-4.158;2023-04-06T16:02:03;2.58;;;0.57;;
17648;SDS011;8943;51.110;-4.158;2023-04-06T16:04:34;4.57;;;0.87;;
17648;SDS011;8943;51.110;-4.158;2023-04-06T16:07:02;3.37;;;0.87;;
17648;SDS011;8943;51.110;-4.158;2023-04-06T16:09:31;3.77;;;0.70;;
17648;SDS011;8943;51.110;-4.158;2023-04-06T16:11:59;4.27;;;0.90;;
17648;SDS011;8943;51.110;-4.158;2023-04-06T16:14:28;2.87;;;0.83;;
17648;SDS011;8943;51.110;-4.158;2023-04-06T16:16:56;3.87;;;0.90;;
17648;SDS011;8943;51.110;-4.158;2023-04-06T16:19:25;2.63;;;0.63;;
17648;SDS011;8943;51.110;-4.158;2023-04-06T16:21:58;2.27;;;0.53;;
17648;SDS011;8943;51.110;-4.158;2023-04-06T16:24:27;3.60;;;0.93;;
17648;SDS011;8943;51.110;-4.158;2023-04-06T16:26:59;7.63;;;1.10;;
17648;SDS011;8943;51.110;-4.158;2023-04-06T16:29:27;3.17;;;0.77;;
17648;SDS011;8943;51.110;-4.158;2023-04-06T16:31:57;4.90;;;1.20;;
17648;SDS011;8943;51.110;-4.158;2023-04-06T16:34:45;2.30;;;0.80;;
17648;SDS011;8943;51.110;-4.158;2023-04-06T16:37:17;7.90;;;1.20;;
17648;SDS011;8943;51.110;-4.158;2023-04-06T16:39:47;2.17;;;0.67;;
17648;SDS011;8943;51.110;-4.158;2023-04-06T16:42:15;2.87;;;0.80;;
17648;SDS011;8943;51.110;-4.158;2023-04-06T16:44:45;3.50;;;0.93;;
17648;SDS011;8943;51.110;-4.158;2023-04-06T16:47:15;2.60;;;0.70;;
17648;SDS011;8943;51.110;-4.158;2023-04-06T16:49:44;2.27;;;0.70;;
17648;SDS011;8943;51.110;-4.158;2023-04-06T16:52:12;3.90;;;1.13;;
17648;SDS011;8943;51.110;-4.158;2023-04-06T16:54:42;4.63;;;0.90;;
17648;SDS011;8943;51.110;-4.158;2023-04-06T16:57:11;2.60;;;0.70;;
17648;SDS011;8943;51.110;-4.158;2023-04-06T16:59:41;4.53;;;1.50;;
17648;SDS011;8943;51.110;-4.158;2023-04-06T17:02:09;7.37;;;1.30;;
17648;SDS011;8943;51.110;-4.158;2023-04-06T17:04:38;2.00;;;0.73;;
17648;SDS011;8943;51.110;-4.158;2023-04-06T17:07:07;3.23;;;0.70;;
17648;SDS011;8943;51.110;-4.158;2023-04-06T17:09:36;5.37;;;1.40;;
17648;SDS011;8943;51.110;-4.158;2023-04-06T17:12:06;4.50;;;1.10;;
17648;SDS011;8943;51.110;-4.158;2023-04-06T17:14:34;6.23;;;0.80;;
17648;SDS011;8943;51.110;-4.158;2023-04-06T17:17:03;1.83;;;0.80;;
17648;SDS011;8943;51.110;-4.158;2023-04-06T17:19:31;3.63;;;1.17;;
17648;SDS011;8943;51.110;-4.158;2023-04-06T17:21:59;6.23;;;1.23;;
17648;SDS011;8943;51.110;-4.158;2023-04-06T17:24:28;5.17;;;1.03;;
17648;SDS011;8943;51.110;-4.158;2023-04-06T17:26:56;5.30;;;0.70;;
17648;SDS011;8943;51.110;-4.158;2023-04-06T17:29:26;2.83;;;0.77;;
17648;SDS011;8943;51.110;-4.158;2023-04-06T17:31:54;3.30;;;0.90;;
17648;SDS011;8943;51.110;-4.158;2023-04-06T17:34:23;2.57;;;0.80;;
17648;SDS011;8943;51.110;-4.158;2023-04-06T17:36:51;3.80;;;1.17;;
17648;SDS011;8943;51.110;-4.158;2023-04-06T17:39:20;3.80;;;0.77;;
17648;SDS011;8943;51.110;-4.158;2023-04-06T17:47:52;3.90;;;1.03;;
17648;SDS011;8943;51.110;-4.158;2023-04-06T17:50:20;4.20;;;0.90;;
17648;SDS011;8943;51.110;-4.158;2023-04-06T17:52:57;3.27;;;0.70;;
17648;SDS011;8943;51.110;-4.158;2023-04-06T17:55:31;3.80;;;1.00;;
17648;SDS011;8943;51.110;-4.158;2023-04-06T17:57:59;5.40;;;0.97;;
17648;SDS011;8943;51.110;-4.158;2023-04-06T18:00:35;6.00;;;1.07;;
17648;SDS011;8943;51.110;-4.158;2023-04-06T18:03:43;3.70;;;0.90;;
17648;SDS011;8943;51.110;-4.158;2023-04-06T18:06:12;3.30;;;1.00;;
17648;SDS011;8943;51.110;-4.158;2023-04-06T18:08:43;1.50;;;0.53;;
17648;SDS011;8943;51.110;-4.158;2023-04-06T18:11:40;3.73;;;0.90;;
17648;SDS011;8943;51.110;-4.158;2023-04-06T18:14:26;8.77;;;1.07;;
17648;SDS011;8943;51.110;-4.158;2023-04-06T18:16:55;4.43;;;1.30;;
17648;SDS011;8943;51.110;-4.158;2023-04-06T18:19:27;3.80;;;1.00;;
17648;SDS011;8943;51.110;-4.158;2023-04-06T18:21:57;3.23;;;1.00;;
17648;SDS011;8943;51.110;-4.158;2023-04-06T18:24:42;7.23;;;1.10;;
17648;SDS011;8943;51.110;-4.158;2023-04-06T18:27:27;7.27;;;1.23;;
17648;SDS011;8943;51.110;-4.158;2023-04-06T18:29:57;5.93;;;0.90;;
17648;SDS011;8943;51.110;-4.158;2023-04-06T18:32:26;6.40;;;1.10;;
17648;SDS011;8943;51.110;-4.158;2023-04-06T18:35:09;5.47;;;0.83;;
17648;SDS011;8943;51.110;-4.158;2023-04-06T18:37:38;4.30;;;1.30;;
17648;SDS011;8943;51.110;-4.158;2023-04-06T18:40:07;7.43;;;1.40;;
17648;SDS011;8943;51.110;-4.158;2023-04-06T18:43:24;3.47;;;1.10;;
17648;SDS011;8943;51.110;-4.158;2023-04-06T18:46:53;7.57;;;0.90;;
17648;SDS011;8943;51.110;-4.158;2023-04-06T18:49:31;4.10;;;1.47;;
17648;SDS011;8943;51.110;-4.158;2023-04-06T18:55:07;6.93;;;1.97;;
17648;SDS011;8943;51.110;-4.158;2023-04-06T18:57:38;6.20;;;1.20;;
17648;SDS011;8943;51.110;-4.158;2023-04-06T19:00:07;7.67;;;2.00;;
17648;SDS011;8943;51.110;-4.158;2023-04-06T19:02:51;7.87;;;2.07;;
17648;SDS011;8943;51.110;-4.158;2023-04-06T19:05:25;8.40;;;1.70;;
17648;SDS011;8943;51.110;-4.158;2023-04-06T19:08:10;7.73;;;1.60;;
17648;SDS011;8943;51.110;-4.158;2023-04-06T19:23:43;6.97;;;1.33;;
17648;SDS011;8943;51.110;-4.158;2023-04-06T19:26:16;1.87;;;0.63;;
17648;SDS011;8943;51.110;-4.158;2023-04-06T19:28:49;7.77;;;2.10;;
17648;SDS011;8943;51.110;-4.158;2023-04-06T19:31:18;5.60;;;1.57;;
17648;SDS011;8943;51.110;-4.158;2023-04-06T19:33:53;8.23;;;2.57;;
17648;SDS011;8943;51.110;-4.158;2023-04-06T19:36:21;9.57;;;2.20;;
17648;SDS011;8943;51.110;-4.158;2023-04-06T19:38:55;10.80;;;4.27;;
17648;SDS011;8943;51.110;-4.158;2023-04-06T19:41:51;16.10;;;6.50;;
17648;SDS011;8943;51.110;-4.158;2023-04-06T19:44:21;5.37;;;2.43;;
17648;SDS011;8943;51.110;-4.158;2023-04-06T19:46:53;22.63;;;9.17;;
17648;SDS011;8943;51.110;-4.158;2023-04-06T19:49:36;13.37;;;6.47;;
17648;SDS011;8943;51.110;-4.158;2023-04-06T19:52:06;10.57;;;3.00;;
17648;SDS011;8943;51.110;-4.158;2023-04-06T19:54:51;11.50;;;4.97;;
17648;SDS011;8943;51.110;-4.158;2023-04-06T19:57:19;14.23;;;5.43;;
17648;SDS011;8943;51.110;-4.158;2023-04-06T19:59:48;15.57;;;5.40;;
17648;SDS011;8943;51.110;-4.158;2023-04-06T20:02:17;12.70;;;4.17;;
17648;SDS011;8943;51.110;-4.158;2023-04-06T20:04:46;9.40;;;4.50;;
17648;SDS011;8943;51.110;-4.158;2023-04-06T20:07:15;7.27;;;1.90;;
17648;SDS011;8943;51.110;-4.158;2023-04-06T20:09:43;16.33;;;7.20;;
17648;SDS011;8943;51.110;-4.158;2023-04-06T20:12:28;9.27;;;4.13;;
17648;SDS011;8943;51.110;-4.158;2023-04-06T20:14:58;19.53;;;5.70;;
17648;SDS011;8943;51.110;-4.158;2023-04-06T20:17:28;7.70;;;2.50;;
17648;SDS011;8943;51.110;-4.158;2023-04-06T20:20:12;10.60;;;2.63;;
17648;SDS011;8943;51.110;-4.158;2023-04-06T20:22:44;11.80;;;2.60;;
17648;SDS011;8943;51.110;-4.158;2023-04-06T20:25:35;8.63;;;2.10;;
17648;SDS011;8943;51.110;-4.158;2023-04-06T20:30:56;10.87;;;2.50;;
17648;SDS011;8943;51.110;-4.158;2023-04-06T20:33:27;13.47;;;2.57;;
17648;SDS011;8943;51.110;-4.158;2023-04-06T20:36:03;13.20;;;3.07;;
17648;SDS011;8943;51.110;-4.158;2023-04-06T20:38:59;11.87;;;2.90;;
17648;SDS011;8943;51.110;-4.158;2023-04-06T20:41:56;7.33;;;2.33;;
17648;SDS011;8943;51.110;-4.158;2023-04-06T20:44:59;12.03;;;2.43;;
17648;SDS011;8943;51.110;-4.158;2023-04-06T20:47:32;8.73;;;2.10;;
17648;SDS011;8943;51.110;-4.158;2023-04-06T20:50:04;6.33;;;1.60;;
17648;SDS011;8943;51.110;-4.158;2023-04-06T20:53:06;8.43;;;2.20;;
17648;SDS011;8943;51.110;-4.158;2023-04-06T20:56:07;8.07;;;2.23;;
17648;SDS011;8943;51.110;-4.158;2023-04-06T20:58:46;5.83;;;2.07;;
17648;SDS011;8943;51.110;-4.158;2023-04-06T21:01:22;8.57;;;1.87;;
17648;SDS011;8943;51.110;-4.158;2023-04-06T21:03:51;10.40;;;1.87;;
17648;SDS011;8943;51.110;-4.158;2023-04-06T21:06:33;16.67;;;2.50;;
17648;SDS011;8943;51.110;-4.158;2023-04-06T21:09:01;12.23;;;2.07;;
17648;SDS011;8943;51.110;-4.158;2023-04-06T21:11:30;13.03;;;1.90;;
17648;SDS011;8943;51.110;-4.158;2023-04-06T21:13:58;12.57;;;3.00;;
17648;SDS011;8943;51.110;-4.158;2023-04-06T21:16:28;12.33;;;1.83;;
17648;SDS011;8943;51.110;-4.158;2023-04-06T21:18:56;10.63;;;1.80;;
17648;SDS011;8943;51.110;-4.158;2023-04-06T21:21:25;7.30;;;1.80;;
17648;SDS011;8943;51.110;-4.158;2023-04-06T21:23:53;14.73;;;2.33;;
17648;SDS011;8943;51.110;-4.158;2023-04-06T21:26:23;8.40;;;2.03;;
17648;SDS011;8943;51.110;-4.158;2023-04-06T21:28:54;5.97;;;1.60;;
17648;SDS011;8943;51.110;-4.158;2023-04-06T21:31:51;4.00;;;1.63;;
17648;SDS011;8943;51.110;-4.158;2023-04-06T21:34:21;9.00;;;1.73;;
17648;SDS011;8943;51.110;-4.158;2023-04-06T21:36:50;8.10;;;1.67;;
17648;SDS011;8943;51.110;-4.158;2023-04-06T21:39:18;10.23;;;1.70;;
17648;SDS011;8943;51.110;-4.158;2023-04-06T21:41:46;9.23;;;2.00;;
17648;SDS011;8943;51.110;-4.158;2023-04-06T21:44:15;6.50;;;1.67;;
17648;SDS011;8943;51.110;-4.158;2023-04-06T21:46:44;8.97;;;1.70;;
17648;SDS011;8943;51.110;-4.158;2023-04-06T21:49:16;9.97;;;2.17;;
17648;SDS011;8943;51.110;-4.158;2023-04-06T21:51:45;16.27;;;1.93;;
17648;SDS011;8943;51.110;-4.158;2023-04-06T21:54:20;11.60;;;1.83;;
17648;SDS011;8943;51.110;-4.158;2023-04-06T21:57:26;5.07;;;1.53;;
17648;SDS011;8943;51.110;-4.158;2023-04-06T22:00:16;11.07;;;1.60;;
17648;SDS011;8943;51.110;-4.158;2023-04-06T22:03:00;9.53;;;1.57;;
17648;SDS011;8943;51.110;-4.158;2023-04-06T22:05:31;6.20;;;1.23;;
17648;SDS011;8943;51.110;-4.158;2023-04-06T22:08:01;6.83;;;1.60;;
17648;SDS011;8943;51.110;-4.158;2023-04-06T22:10:37;9.40;;;2.00;;
17648;SDS011;8943;51.110;-4.158;2023-04-06T22:13:07;10.50;;;3.10;;
17648;SDS011;8943;51.110;-4.158;2023-04-06T22:15:38;9.93;;;1.83;;
17648;SDS011;8943;51.110;-4.158;2023-04-06T22:18:07;4.77;;;1.57;;
17648;SDS011;8943;51.110;-4.158;2023-04-06T22:20:46;7.77;;;1.43;;
17648;SDS011;8943;51.110;-4.158;2023-04-06T22:23:15;9.90;;;1.70;;
17648;SDS011;8943;51.110;-4.158;2023-04-06T22:25:43;6.27;;;1.20;;
17648;SDS011;8943;51.110;-4.158;2023-04-06T22:28:11;5.47;;;1.57;;
17648;SDS011;8943;51.110;-4.158;2023-04-06T22:30:41;14.27;;;2.20;;